Latest Weather Observations for Merimbula

IDN60801

Issued at 7:03 am EST Friday 3 July 2015 (issued every 30 minutes, with the page automatically refreshed every 10 minutes)

About weather observations | Map of weather stations | Latest weather observations for NSW | Other Formats
Station Details ID: 069147 Name: MERIMBULA AIRPORT AWS Lat: -36.91 Lon: 149.90 Height: 1.5 m
Data from the previous 72 hours. | See also: Recent months at Merimbula
Date/Time
EST
Temp
°C
App
Temp
°C
Dew
Point
Rel
Hum
%
Delta-T
°C
Wind Press
QNH
hPa
Press
MSL
hPa
Rain
since 9 am
mm
Dir
 
Spd
km/h
Gust
km/h
Spd
kts
Gust
kts
03/07:00am 6.4 2.5 1.3 70 2.0 W 11 17 6 9 1026.1 1026.1 1.4
03/06:30am 6.7 1.8 1.8 71 2.0 WSW 17 24 9 13 1025.8 1025.8 1.4
03/06:00am 4.8 1.8 1.1 77 1.4 WSW 6 11 3 6 1025.5 1025.5 1.4
03/05:30am 6.1 2.0 2.0 75 1.7 WNW 13 19 7 10 1025.2 1025.2 1.4
03/05:00am 4.9 1.8 1.4 78 1.4 WNW 7 13 4 7 1025.0 1025.0 1.4
03/04:30am 5.6 2.5 1.3 74 1.7 WNW 7 13 4 7 1025.0 1025.0 1.4
03/04:00am 6.9 3.5 2.0 71 2.0 WSW 9 17 5 9 1024.8 1024.8 1.4
03/03:30am 6.8 3.0 1.7 70 2.1 W 11 17 6 9 1024.7 1024.7 1.4
03/03:00am 6.1 2.7 2.0 75 1.6 WSW 9 20 5 11 1024.8 1024.8 1.4
03/02:30am 5.4 2.5 1.3 75 1.6 WNW 6 15 3 8 1024.7 1024.7 1.4
03/02:00am 6.4 3.4 1.1 69 2.1 W 6 11 3 6 1024.7 1024.7 1.4
03/01:30am 7.8 4.0 1.6 65 2.5 W 11 20 6 11 1024.6 1024.6 1.4
03/01:00am 8.6 3.7 1.7 62 2.8 W 17 30 9 16 1024.4 1024.4 1.4
03/12:30am 8.2 3.4 2.4 67 2.4 WSW 17 24 9 13 1024.1 1024.1 1.4
03/12:00am 8.2 4.0 1.8 64 2.6 W 13 20 7 11 1024.4 1024.4 1.4
 
Date/Time
EST
Temp
°C
App
Temp
°C
Dew
Point
Rel
Hum
%
Delta-T
°C
Wind Press
QNH
hPa
Press
MSL
hPa
Rain
since 9 am
mm
Dir
 
Spd
km/h
Gust
km/h
Spd
kts
Gust
kts
02/11:30pm 8.0 4.2 1.6 64 2.6 W 11 17 6 9 1024.5 1024.5 1.4
02/11:00pm 8.6 4.1 2.2 64 2.7 WSW 15 24 8 13 1024.1 1024.1 1.4
02/10:30pm 8.2 4.8 1.8 64 2.6 WNW 9 15 5 8 1024.2 1024.2 1.4
02/10:00pm 8.8 4.7 2.2 63 2.7 WSW 13 24 7 13 1023.8 1023.8 1.4
02/09:30pm 9.0 4.1 1.9 61 3.0 WSW 17 24 9 13 1023.8 1023.8 1.4
02/09:00pm 9.2 3.9 1.9 60 3.0 SW 19 32 10 17 1023.1 1023.1 1.4
02/08:30pm 9.2 3.9 1.6 59 3.1 WSW 19 30 10 16 1023.0 1023.0 1.4
02/08:00pm 8.8 3.5 1.9 62 2.8 WSW 19 33 10 18 1022.9 1022.9 1.4
02/07:30pm 8.9 4.0 1.8 61 2.9 WSW 17 28 9 15 1022.6 1022.6 1.4
02/07:00pm 9.2 3.0 2.1 61 3.0 WSW 24 35 13 19 1022.0 1022.0 1.4
02/06:30pm 9.2 2.2 1.9 60 3.0 WSW 28 48 15 26 1021.1 1021.1 1.4
02/06:23pm 9.3 2.3 1.9 60 3.1 WSW 28 48 15 26 1020.9 1020.9 1.4
02/06:00pm 9.3 1.9 1.7 59 3.1 WSW 30 44 16 24 1020.4 1020.4 1.4
02/05:30pm 9.1 3.2 1.8 60 3.0 SW 22 46 12 25 1020.2 1020.2 1.4
02/05:00pm 8.9 4.0 1.8 61 2.9 SW 17 28 9 15 1019.6 1019.6 1.4
02/04:30pm 9.5 4.9 1.4 57 3.3 WSW 15 26 8 14 1018.9 1018.9 1.4
02/04:00pm 10.0 4.6 2.4 59 3.2 W 20 37 11 20 1018.6 1018.6 1.4
02/03:30pm 9.2 3.5 2.8 64 2.7 W 22 33 12 18 1018.3 1018.3 1.4
02/03:00pm 9.3 3.6 2.6 63 2.8 WSW 22 39 12 21 1017.7 1017.7 1.4
02/02:43pm 9.1 2.3 3.3 67 2.5 WSW 28 46 15 25 1017.6 1017.6 1.4
02/02:30pm 8.6 3.7 4.0 73 2.0 WSW 19 32 10 17 1017.6 1017.6 1.4
02/02:00pm 8.4 3.5 5.0 79 1.5 SW 20 35 11 19 1017.7 1017.7 1.4
02/01:49pm 8.6 2.8 6.1 84 1.1 SW 26 39 14 21 1017.4 1017.4 1.4
02/01:30pm 9.4 4.0 6.5 82 1.3 SW 24 41 13 22 1016.4 1016.4 0.6
02/01:28pm 9.5 4.1 6.4 81 1.4 SW 24 41 13 22 1016.3 1016.3 0.6
02/01:00pm 10.5 5.6 7.0 79 1.7 SSW 22 33 12 18 1015.8 1015.8 0.0
02/12:30pm 12.2 8.7 7.1 71 2.5 SSW 15 20 8 11 1015.5 1015.5 0.0
02/12:00pm 12.4 9.2 6.7 68 2.7 SSW 13 24 7 13 1015.8 1015.8 0.0
02/11:30am 13.0 10.5 6.4 64 3.1 S 9 17 5 9 1016.1 1016.1 0.0
02/11:00am 12.5 8.9 6.8 68 2.7 SSE 15 20 8 11 1016.8 1016.8 0.0
02/10:30am 12.2 8.1 4.4 59 3.5 S 15 28 8 15 1017.4 1017.4 0.0
02/10:00am 13.3 9.8 3.7 52 4.3 WNW 11 15 6 8 1016.7 1016.7 0.0
02/09:30am 13.1 10.3 2.9 50 4.5 W 7 11 4 6 1016.5 1016.5 0.0
02/09:00am 12.8 11.3 2.9 51 4.4 CALM 0 0 0 0 1016.4 1016.4 0.0
02/08:30am 11.6 7.6 2.9 55 3.8 W 13 19 7 10 1016.3 1016.3 0.0
02/08:00am 10.7 5.5 2.5 57 3.5 WSW 19 24 10 13 1016.3 1016.3 0.0
02/07:30am 10.2 4.8 2.3 58 3.4 WSW 20 30 11 16 1016.0 1016.0 0.0
02/07:20am 10.0 4.7 2.8 61 3.1 WSW 20 26 11 14 1016.0 1016.0 0.0
02/07:00am 5.0 3.3 2.0 81 1.2 CALM 0 0 0 0 1016.0 1016.0 0.0
02/06:30am 4.8 3.2 2.5 85 0.9 CALM 0 0 0 0 1015.8 1015.8 0.0
02/06:00am 4.9 3.2 1.7 80 1.3 CALM 0 0 0 0 1016.0 1016.0 0.0
02/05:30am 6.4 3.4 1.9 73 1.8 W 7 13 4 7 1016.4 1016.4 0.0
02/05:00am 6.4 3.6 2.9 78 1.4 SW 7 15 4 8 1016.8 1016.8 0.0
02/04:30am 5.0 3.4 2.5 84 1.0 CALM 0 0 0 0 1016.7 1016.7 0.0
02/04:00am 4.4 2.7 1.9 84 1.0 CALM 0 0 0 0 1017.0 1017.0 0.0
02/03:30am 4.7 3.0 1.9 82 1.1 CALM 0 0 0 0 1017.6 1017.6 0.0
02/03:00am 5.5 3.8 2.0 78 1.4 CALM 0 0 0 0 1018.4 1018.4 0.0
02/02:30am 7.1 4.3 3.0 75 1.7 SW 7 11 4 6 1018.7 1018.7 0.0
02/02:00am 7.3 3.6 2.6 72 1.9 W 11 15 6 8 1019.2 1019.2 0.0
02/01:30am 6.9 3.0 3.3 78 1.5 WNW 13 15 7 8 1019.5 1019.5 0.0
02/01:00am 5.6 2.4 3.3 85 1.0 W 9 11 5 6 1020.0 1020.0 0.0
02/12:30am 5.9 2.4 3.7 86 0.9 W 11 19 6 10 1020.3 1020.3 0.0
02/12:00am 4.0 1.4 3.0 93 0.4 SW 6 9 3 5 1020.4 1020.4 0.0
 
Date/Time
EST
Temp
°C
App
Temp
°C
Dew
Point
Rel
Hum
%
Delta-T
°C
Wind Press
QNH
hPa
Press
MSL
hPa
Rain
since 9 am
mm
Dir
 
Spd
km/h
Gust
km/h
Spd
kts
Gust
kts
01/11:30pm 4.3 2.1 3.3 93 0.4 SW 4 9 2 5 1020.6 1020.6 0.0
01/11:00pm 4.9 3.6 3.9 93 0.4 CALM 0 0 0 0 1021.0 1021.0 0.0
01/10:30pm 6.3 3.6 5.6 95 0.3 WNW 9 11 5 6 1021.3 1021.3 0.0
01/10:00pm 5.4 2.9 4.7 95 0.3 NW 7 11 4 6 1021.5 1021.5 0.0
01/09:30pm 5.0 3.7 4.3 95 0.3 CALM 0 0 0 0 1021.7 1021.7 0.0
01/09:00pm 5.3 4.1 4.6 95 0.3 CALM 0 0 0 0 1021.6 1021.6 0.0
01/08:30pm 5.4 4.2 4.7 95 0.3 CALM 0 0 0 0 1021.8 1021.8 0.0
01/08:12pm 5.1 3.8 3.9 92 0.5 CALM 0 0 0 0 1022.0 1022.0 0.0
01/08:00pm 5.2 3.9 4.0 92 0.5 CALM 0 0 0 0 1022.1 1022.1 0.0
01/07:30pm 5.6 4.3 4.2 91 0.6 CALM 0 0 0 0 1022.0 1022.0 0.0
01/07:00pm 6.2 5.0 4.8 91 0.6 CALM 0 0 0 0 1021.9 1021.9 0.0
01/06:30pm 6.7 4.2 5.0 89 0.7 WNW 7 9 4 5 1021.6 1021.6 0.0
01/06:00pm 7.5 6.4 5.1 85 1.1 CALM 0 6 0 3 1021.6 1021.6 0.0
01/05:30pm 9.3 8.7 7.3 87 0.9 CALM 0 0 0 0 1021.5 1021.5 0.0
01/05:00pm 10.4 9.4 5.6 72 2.2 CALM 0 0 0 0 1021.5 1021.5 0.0
01/04:30pm 12.9 10.8 6.0 63 3.3 NNE 6 7 3 4 1021.5 1021.5 0.0
01/04:00pm 14.4 12.3 6.5 59 3.8 NNE 7 11 4 6 1021.7 1021.7 0.0
01/03:30pm 15.1 12.6 6.4 56 4.2 ENE 9 13 5 7 1021.7 1021.7 0.0
01/03:00pm 15.6 13.0 6.1 53 4.6 E 9 13 5 7 1021.7 1021.7 0.0
01/02:30pm 15.9 13.0 6.6 54 4.5 ENE 11 15 6 8 1021.9 1021.9 0.0
01/02:00pm 16.7 13.8 4.4 44 5.8 WSW 9 17 5 9 1022.2 1022.2 0.0
01/01:30pm 16.2 12.9 4.3 45 5.6 WSW 11 19 6 10 1022.6 1022.6 0.0
01/01:00pm 16.1 12.8 4.5 46 5.4 WSW 11 17 6 9 1023.1 1023.1 0.0
01/12:30pm 15.9 12.4 5.5 50 5.0 WNW 13 17 7 9 1023.9 1023.9 0.0
01/12:00pm 14.6 10.9 4.6 51 4.6 WNW 13 20 7 11 1024.3 1024.3 0.0
01/11:30am 14.0 10.4 4.9 54 4.2 WNW 13 19 7 10 1024.8 1024.8 0.0
01/11:00am 13.6 9.9 4.2 53 4.3 WNW 13 22 7 12 1025.4 1025.4 0.0
01/10:30am 13.7 9.2 4.3 53 4.3 W 17 26 9 14 1025.9 1025.9 0.0
01/10:00am 12.9 8.8 4.1 55 4.0 W 15 24 8 13 1026.0 1026.0 0.0
01/09:30am 11.9 7.8 4.6 61 3.3 WNW 15 24 8 13 1026.1 1026.1 0.0
01/09:00am 10.7 5.5 3.7 62 3.1 W 20 32 11 17 1025.9 1025.9 0.0
01/08:30am 10.6 6.0 3.6 62 3.1 W 17 26 9 14 1026.0 1026.0 0.0
01/08:00am 9.5 4.9 3.5 66 2.6 W 17 24 9 13 1025.7 1025.7 0.0
01/07:30am 8.8 4.5 3.2 68 2.4 W 15 22 8 12 1025.5 1025.5 0.0
01/07:00am 9.0 4.3 3.4 68 2.4 W 17 26 9 14 1025.5 1025.5 0.0
01/06:30am 9.0 3.8 3.4 68 2.4 W 20 26 11 14 1025.4 1025.4 0.0
01/06:00am 9.0 4.3 3.2 67 2.5 W 17 24 9 13 1025.4 1025.4 0.0
01/05:30am 9.2 4.2 3.4 67 2.5 W 19 28 10 15 1025.2 1025.2 0.0
01/05:00am 9.1 4.4 3.3 67 2.5 W 17 26 9 14 1025.1 1025.1 0.0
01/04:30am 6.7 3.0 4.2 84 1.1 NW 13 20 7 11 1024.9 1024.9 0.0
01/04:00am 6.4 3.0 3.9 84 1.1 NW 11 17 6 9 1025.0 1025.0 0.0
01/03:30am 6.6 3.2 3.8 82 1.2 NW 11 15 6 8 1025.2 1025.2 0.0
01/03:00am 7.2 4.1 3.6 78 1.5 WNW 9 17 5 9 1025.5 1025.5 0.0
01/02:30am 8.0 3.6 2.9 70 2.1 W 15 20 8 11 1025.7 1025.7 0.0
01/02:00am 8.2 4.2 2.7 68 2.3 W 13 20 7 11 1025.9 1025.9 0.0
01/01:30am 7.9 3.9 2.6 69 2.2 W 13 19 7 10 1026.0 1026.0 0.0
01/01:00am 8.2 4.2 2.9 69 2.2 WSW 13 19 7 10 1026.2 1026.2 0.0
01/12:30am 8.7 4.3 2.9 67 2.5 WSW 15 20 8 11 1026.3 1026.3 0.0
01/12:00am 8.9 4.2 2.9 66 2.5 W 17 26 9 14 1026.4 1026.4 0.0
 
Date/Time
EST
Temp
°C
App
Temp
°C
Dew
Point
Rel
Hum
%
Delta-T
°C
Wind Press
QNH
hPa
Press
MSL
hPa
Rain
since 9 am
mm
Dir
 
Spd
km/h
Gust
km/h
Spd
kts
Gust
kts
30/11:30pm 8.9 4.9 3.1 67 2.5 WSW 13 20 7 11 1026.4 1026.4 0.0
30/11:00pm 9.0 4.7 3.2 67 2.5 WSW 15 22 8 12 1026.4 1026.4 0.0
30/10:30pm 9.2 5.3 3.2 66 2.6 WSW 13 17 7 9 1026.4 1026.4 0.0
30/10:00pm 9.5 5.7 3.7 67 2.5 WSW 13 20 7 11 1026.5 1026.5 0.0
30/09:30pm 9.4 4.9 4.4 71 2.2 W 17 22 9 12 1026.6 1026.6 0.0
30/09:00pm 8.5 5.0 5.4 81 1.4 WSW 13 20 7 11 1026.6 1026.6 0.0
30/08:30pm 6.2 5.1 5.0 92 0.5 CALM 0 0 0 0 1026.6 1026.6 0.0
30/08:00pm 6.7 5.6 5.3 91 0.6 CALM 0 6 0 3 1026.7 1026.7 0.0
30/07:30pm 7.6 6.8 6.5 93 0.5 CALM 0 0 0 0 1026.5 1026.5 0.0
30/07:00pm 7.0 4.8 5.5 90 0.7 S 6 7 3 4 1026.3 1026.3 0.0
30/06:30pm 7.7 6.3 5.5 86 1.0 SSE 2 7 1 4 1026.0 1026.0 0.0
30/06:00pm 9.7 7.5 7.8 88 0.9 SSW 9 9 5 5 1025.7 1025.7 0.0
30/05:30pm 10.9 8.9 8.5 85 1.2 SSW 9 11 5 6 1025.3 1025.3 0.0
30/05:00pm 12.1 11.7 8.4 78 1.8 CALM 0 0 0 0 1025.1 1025.1 0.0
30/04:30pm 13.6 12.3 9.3 75 2.2 SSE 6 9 3 5 1024.6 1024.6 0.0
30/04:00pm 14.7 12.9 9.3 70 2.8 SE 9 17 5 9 1024.4 1024.4 0.0
30/03:30pm 15.4 14.2 9.7 69 3.0 E 6 11 3 6 1024.4 1024.4 0.0
30/03:00pm 15.4 15.3 9.5 68 3.0 CALM 0 0 0 0 1024.3 1024.3 0.0
30/02:30pm 14.1 14.0 9.5 74 2.4 CALM 0 0 0 0 1024.4 1024.4 0.0
30/02:00pm 14.7 13.0 9.7 72 2.6 SSE 9 13 5 7 1024.5 1024.5 0.0
30/01:30pm 14.7 13.4 9.9 73 2.5 S 7 11 4 6 1024.5 1024.5 0.0
30/01:00pm 16.1 14.6 10.4 69 3.0 ESE 9 13 5 7 1024.9 1024.9 0.0
30/12:30pm 15.7 13.7 10.2 70 2.9 E 11 15 6 8 1025.3 1025.3 0.0
30/12:00pm 15.4 13.5 10.6 73 2.5 ESE 11 15 6 8 1025.8 1025.8 0.0
30/11:30am 15.1 15.2 10.3 73 2.5 CALM 0 0 0 0 1026.4 1026.4 0.0
30/11:00am 13.7 13.6 9.6 76 2.1 CALM 0 0 0 0 1026.8 1026.8 0.0
30/10:30am 12.9 12.8 9.4 79 1.8 CALM 0 6 0 3 1027.3 1027.3 0.0
30/10:00am 11.6 9.6 8.6 82 1.5 WNW 9 13 5 7 1027.5 1027.5 0.0
30/09:30am 10.7 10.3 9.8 94 0.5 W 2 6 1 3 1027.6 1027.6 0.0
30/09:00am 9.2 9.0 8.9 98 0.1 CALM 0 0 0 0 1027.8 1027.8 0.0
30/08:30am 8.4 6.3 8.3 99 0.0 NW 9 11 5 6 1027.8 1027.8 0.0
30/08:07am 6.2 5.3 5.9 98 0.1 CALM 0 0 0 0 1027.8 1027.8 0.0
30/08:00am 5.9 4.9 5.5 97 0.2 CALM 0 0 0 0 1027.8 1027.8 0.0
30/07:30am 4.7 3.4 4.3 97 0.2 CALM 0 0 0 0 1027.9 1027.9 0.0

Other Formats:

Comma delimited format used in spreadsheet applications
http://www.bom.gov.au/fwo/IDN60801/IDN60801.95929.axf

JavaScript Object Notation format (JSON) in row-major order
http://www.bom.gov.au/fwo/IDN60801/IDN60801.95929.json